sensor_id;sensor_type;location;lat;lon;timestamp;temperature;humidity
3156;DHT22;1588;50.892;7.082;2023-11-19T00:02:06;10.00;99.90
3156;DHT22;1588;50.892;7.082;2023-11-19T00:07:09;10.10;99.90
3156;DHT22;1588;50.892;7.082;2023-11-19T00:12:13;10.10;99.90
3156;DHT22;1588;50.892;7.082;2023-11-19T00:17:17;10.20;99.90
3156;DHT22;1588;50.892;7.082;2023-11-19T00:22:19;10.30;99.90
3156;DHT22;1588;50.892;7.082;2023-11-19T00:27:23;10.30;99.90
3156;DHT22;1588;50.892;7.082;2023-11-19T00:32:27;10.30;99.90
3156;DHT22;1588;50.892;7.082;2023-11-19T00:37:30;10.30;99.90
3156;DHT22;1588;50.892;7.082;2023-11-19T00:42:33;10.30;99.90
3156;DHT22;1588;50.892;7.082;2023-11-19T00:47:36;10.30;99.90
3156;DHT22;1588;50.892;7.082;2023-11-19T00:52:39;10.30;99.90
3156;DHT22;1588;50.892;7.082;2023-11-19T00:57:41;10.20;99.90
3156;DHT22;1588;50.892;7.082;2023-11-19T01:02:45;10.20;99.90
3156;DHT22;1588;50.892;7.082;2023-11-19T01:07:48;10.30;99.90
3156;DHT22;1588;50.892;7.082;2023-11-19T01:12:51;10.40;99.90
3156;DHT22;1588;50.892;7.082;2023-11-19T01:17:55;10.40;99.90
3156;DHT22;1588;50.892;7.082;2023-11-19T01:22:57;10.50;99.90
3156;DHT22;1588;50.892;7.082;2023-11-19T01:28:00;10.60;99.90
3156;DHT22;1588;50.892;7.082;2023-11-19T01:33:06;10.60;99.90
3156;DHT22;1588;50.892;7.082;2023-11-19T01:38:09;10.70;99.90
3156;DHT22;1588;50.892;7.082;2023-11-19T01:43:12;10.70;99.90
3156;DHT22;1588;50.892;7.082;2023-11-19T01:48:17;10.70;99.90
3156;DHT22;1588;50.892;7.082;2023-11-19T01:53:20;10.70;99.90
3156;DHT22;1588;50.892;7.082;2023-11-19T01:58:23;10.70;99.90
3156;DHT22;1588;50.892;7.082;2023-11-19T02:03:27;10.80;99.90
3156;DHT22;1588;50.892;7.082;2023-11-19T02:08:30;10.80;99.90
3156;DHT22;1588;50.892;7.082;2023-11-19T02:13:33;10.80;99.90
3156;DHT22;1588;50.892;7.082;2023-11-19T02:18:38;10.80;99.90
3156;DHT22;1588;50.892;7.082;2023-11-19T02:23:40;10.90;99.90
3156;DHT22;1588;50.892;7.082;2023-11-19T02:28:44;10.90;99.90
3156;DHT22;1588;50.892;7.082;2023-11-19T02:33:47;10.90;99.90
3156;DHT22;1588;50.892;7.082;2023-11-19T02:38:51;10.90;99.90
3156;DHT22;1588;50.892;7.082;2023-11-19T02:43:54;11.00;99.90
3156;DHT22;1588;50.892;7.082;2023-11-19T02:48:57;11.00;99.90
3156;DHT22;1588;50.892;7.082;2023-11-19T02:53:59;11.10;99.90
3156;DHT22;1588;50.892;7.082;2023-11-19T02:59:02;11.10;99.90
3156;DHT22;1588;50.892;7.082;2023-11-19T03:04:09;11.10;99.90
3156;DHT22;1588;50.892;7.082;2023-11-19T03:09:13;11.10;99.90
3156;DHT22;1588;50.892;7.082;2023-11-19T03:14:17;11.10;99.90
3156;DHT22;1588;50.892;7.082;2023-11-19T03:19:19;11.20;99.90
3156;DHT22;1588;50.892;7.082;2023-11-19T03:24:21;11.10;99.90
3156;DHT22;1588;50.892;7.082;2023-11-19T03:29:27;11.00;99.90
3156;DHT22;1588;50.892;7.082;2023-11-19T03:34:29;10.90;99.90
3156;DHT22;1588;50.892;7.082;2023-11-19T03:39:31;10.90;99.90
3156;DHT22;1588;50.892;7.082;2023-11-19T03:44:35;10.80;99.90
3156;DHT22;1588;50.892;7.082;2023-11-19T03:49:37;10.90;99.90
3156;DHT22;1588;50.892;7.082;2023-11-19T03:54:40;10.80;99.90
3156;DHT22;1588;50.892;7.082;2023-11-19T03:59:43;10.70;99.90
3156;DHT22;1588;50.892;7.082;2023-11-19T04:04:46;10.80;99.90
3156;DHT22;1588;50.892;7.082;2023-11-19T04:09:49;10.80;99.90
3156;DHT22;1588;50.892;7.082;2023-11-19T04:14:53;11.00;99.90
3156;DHT22;1588;50.892;7.082;2023-11-19T04:19:55;11.20;99.90
3156;DHT22;1588;50.892;7.082;2023-11-19T04:24:57;11.40;99.90
3156;DHT22;1588;50.892;7.082;2023-11-19T04:30:01;11.50;99.90
3156;DHT22;1588;50.892;7.082;2023-11-19T04:35:05;11.50;99.90
3156;DHT22;1588;50.892;7.082;2023-11-19T04:40:08;11.50;99.90
3156;DHT22;1588;50.892;7.082;2023-11-19T04:45:12;11.70;99.90
3156;DHT22;1588;50.892;7.082;2023-11-19T04:50:14;11.90;99.90
3156;DHT22;1588;50.892;7.082;2023-11-19T04:55:17;11.90;99.90
3156;DHT22;1588;50.892;7.082;2023-11-19T05:00:20;11.90;99.90
3156;DHT22;1588;50.892;7.082;2023-11-19T05:05:24;11.90;99.90
3156;DHT22;1588;50.892;7.082;2023-11-19T05:10:26;11.90;99.90
3156;DHT22;1588;50.892;7.082;2023-11-19T05:15:30;11.80;99.90
3156;DHT22;1588;50.892;7.082;2023-11-19T05:20:32;11.70;99.90
3156;DHT22;1588;50.892;7.082;2023-11-19T05:25:34;11.70;99.90
3156;DHT22;1588;50.892;7.082;2023-11-19T05:30:39;11.60;99.90
3156;DHT22;1588;50.892;7.082;2023-11-19T05:35:42;11.50;99.90
3156;DHT22;1588;50.892;7.082;2023-11-19T05:40:44;11.40;99.90
3156;DHT22;1588;50.892;7.082;2023-11-19T05:45:50;11.20;99.90
3156;DHT22;1588;50.892;7.082;2023-11-19T05:50:53;11.20;99.90
3156;DHT22;1588;50.892;7.082;2023-11-19T05:55:55;11.10;99.90
3156;DHT22;1588;50.892;7.082;2023-11-19T06:00:59;11.10;99.90
3156;DHT22;1588;50.892;7.082;2023-11-19T06:06:03;10.90;99.90
3156;DHT22;1588;50.892;7.082;2023-11-19T06:11:06;10.90;99.90
3156;DHT22;1588;50.892;7.082;2023-11-19T06:16:10;10.90;99.90
3156;DHT22;1588;50.892;7.082;2023-11-19T06:21:13;10.80;99.90
3156;DHT22;1588;50.892;7.082;2023-11-19T06:26:15;11.00;99.90
3156;DHT22;1588;50.892;7.082;2023-11-19T06:31:19;11.10;99.90
3156;DHT22;1588;50.892;7.082;2023-11-19T06:36:21;11.30;99.90
3156;DHT22;1588;50.892;7.082;2023-11-19T06:41:23;11.50;99.90
3156;DHT22;1588;50.892;7.082;2023-11-19T06:46:27;11.40;99.90
3156;DHT22;1588;50.892;7.082;2023-11-19T06:51:29;11.30;99.90
3156;DHT22;1588;50.892;7.082;2023-11-19T06:56:32;11.10;99.90
3156;DHT22;1588;50.892;7.082;2023-11-19T07:01:36;11.30;99.90
3156;DHT22;1588;50.892;7.082;2023-11-19T07:06:39;11.20;99.90
3156;DHT22;1588;50.892;7.082;2023-11-19T07:11:42;11.30;99.90
3156;DHT22;1588;50.892;7.082;2023-11-19T07:16:47;11.10;99.90
3156;DHT22;1588;50.892;7.082;2023-11-19T07:21:51;10.90;99.90
3156;DHT22;1588;50.892;7.082;2023-11-19T07:26:55;10.70;99.90
3156;DHT22;1588;50.892;7.082;2023-11-19T07:31:59;10.60;99.90
3156;DHT22;1588;50.892;7.082;2023-11-19T07:37:03;10.80;99.90
3156;DHT22;1588;50.892;7.082;2023-11-19T07:42:05;10.80;99.90
3156;DHT22;1588;50.892;7.082;2023-11-19T07:47:12;10.80;99.90
3156;DHT22;1588;50.892;7.082;2023-11-19T07:52:15;10.80;99.90
3156;DHT22;1588;50.892;7.082;2023-11-19T07:57:17;10.80;99.90
3156;DHT22;1588;50.892;7.082;2023-11-19T08:02:21;10.80;99.90
3156;DHT22;1588;50.892;7.082;2023-11-19T08:07:24;10.80;99.90
3156;DHT22;1588;50.892;7.082;2023-11-19T08:12:27;11.10;99.90
3156;DHT22;1588;50.892;7.082;2023-11-19T08:17:31;11.30;99.90
3156;DHT22;1588;50.892;7.082;2023-11-19T08:22:33;11.30;99.90
3156;DHT22;1588;50.892;7.082;2023-11-19T08:27:35;12.10;99.90
3156;DHT22;1588;50.892;7.082;2023-11-19T08:32:39;12.60;99.90
3156;DHT22;1588;50.892;7.082;2023-11-19T08:37:42;13.70;99.90
3156;DHT22;1588;50.892;7.082;2023-11-19T08:42:46;15.10;99.90
3156;DHT22;1588;50.892;7.082;2023-11-19T08:47:50;15.80;99.90
3156;DHT22;1588;50.892;7.082;2023-11-19T08:52:58;16.70;99.90
3156;DHT22;1588;50.892;7.082;2023-11-19T08:58:01;17.80;99.90
3156;DHT22;1588;50.892;7.082;2023-11-19T09:03:05;18.80;99.90
3156;DHT22;1588;50.892;7.082;2023-11-19T09:08:10;19.70;99.90
3156;DHT22;1588;50.892;7.082;2023-11-19T09:13:14;19.60;99.90
3156;DHT22;1588;50.892;7.082;2023-11-19T09:18:18;19.00;99.90
3156;DHT22;1588;50.892;7.082;2023-11-19T09:23:21;17.60;99.90
3156;DHT22;1588;50.892;7.082;2023-11-19T09:28:26;16.70;99.90
3156;DHT22;1588;50.892;7.082;2023-11-19T09:33:30;17.30;99.90
3156;DHT22;1588;50.892;7.082;2023-11-19T09:38:33;17.70;99.90
3156;DHT22;1588;50.892;7.082;2023-11-19T09:43:35;17.40;99.90
3156;DHT22;1588;50.892;7.082;2023-11-19T09:48:40;17.70;99.90
3156;DHT22;1588;50.892;7.082;2023-11-19T09:53:43;17.10;99.90
3156;DHT22;1588;50.892;7.082;2023-11-19T09:58:46;16.50;99.90
3156;DHT22;1588;50.892;7.082;2023-11-19T10:03:51;15.60;99.90
3156;DHT22;1588;50.892;7.082;2023-11-19T10:08:57;15.40;99.90
3156;DHT22;1588;50.892;7.082;2023-11-19T10:14:01;14.90;99.90
3156;DHT22;1588;50.892;7.082;2023-11-19T10:19:05;14.90;99.90
3156;DHT22;1588;50.892;7.082;2023-11-19T10:24:08;14.60;99.90
3156;DHT22;1588;50.892;7.082;2023-11-19T10:29:14;14.50;99.90
3156;DHT22;1588;50.892;7.082;2023-11-19T10:34:26;14.50;99.90
3156;DHT22;1588;50.892;7.082;2023-11-19T10:39:51;14.40;99.90
3156;DHT22;1588;50.892;7.082;2023-11-19T10:44:55;14.60;99.90
3156;DHT22;1588;50.892;7.082;2023-11-19T10:50:00;14.60;99.90
3156;DHT22;1588;50.892;7.082;2023-11-19T10:55:05;14.80;99.90
3156;DHT22;1588;50.892;7.082;2023-11-19T11:00:12;14.90;99.90
3156;DHT22;1588;50.892;7.082;2023-11-19T11:05:19;14.80;99.90
3156;DHT22;1588;50.892;7.082;2023-11-19T11:10:25;14.80;99.90
3156;DHT22;1588;50.892;7.082;2023-11-19T11:15:29;14.30;99.90
3156;DHT22;1588;50.892;7.082;2023-11-19T11:20:35;14.10;99.90
3156;DHT22;1588;50.892;7.082;2023-11-19T11:25:44;13.90;99.90
3156;DHT22;1588;50.892;7.082;2023-11-19T11:31:03;13.90;99.90
3156;DHT22;1588;50.892;7.082;2023-11-19T11:36:19;14.00;99.90
3156;DHT22;1588;50.892;7.082;2023-11-19T11:41:22;13.90;99.90
3156;DHT22;1588;50.892;7.082;2023-11-19T11:46:54;13.80;99.90
3156;DHT22;1588;50.892;7.082;2023-11-19T11:52:01;13.90;99.90
3156;DHT22;1588;50.892;7.082;2023-11-19T11:57:09;14.10;99.90
3156;DHT22;1588;50.892;7.082;2023-11-19T12:02:13;14.10;99.90
3156;DHT22;1588;50.892;7.082;2023-11-19T12:07:25;13.90;99.90
3156;DHT22;1588;50.892;7.082;2023-11-19T12:12:53;14.30;99.90
3156;DHT22;1588;50.892;7.082;2023-11-19T12:24:32;14.10;99.90
3156;DHT22;1588;50.892;7.082;2023-11-19T12:29:48;14.00;99.90
3156;DHT22;1588;50.892;7.082;2023-11-19T12:35:26;14.10;99.90
3156;DHT22;1588;50.892;7.082;2023-11-19T12:47:09;14.20;99.90
3156;DHT22;1588;50.892;7.082;2023-11-19T13:17:31;13.70;99.90
3156;DHT22;1588;50.892;7.082;2023-11-19T13:23:02;13.80;99.90
3156;DHT22;1588;50.892;7.082;2023-11-19T13:28:53;13.80;99.90
3156;DHT22;1588;50.892;7.082;2023-11-19T13:34:25;14.10;99.90
3156;DHT22;1588;50.892;7.082;2023-11-19T13:45:33;13.90;99.90
3156;DHT22;1588;50.892;7.082;2023-11-19T13:51:56;14.00;99.90
3156;DHT22;1588;50.892;7.082;2023-11-19T13:57:40;14.00;99.90
3156;DHT22;1588;50.892;7.082;2023-11-19T14:03:05;14.10;99.90
3156;DHT22;1588;50.892;7.082;2023-11-19T14:09:57;14.20;99.90
3156;DHT22;1588;50.892;7.082;2023-11-19T14:14:48;14.10;99.90
3156;DHT22;1588;50.892;7.082;2023-11-19T14:19:53;14.00;99.90
3156;DHT22;1588;50.892;7.082;2023-11-19T14:24:57;14.00;99.90
3156;DHT22;1588;50.892;7.082;2023-11-19T14:29:59;13.90;99.90
3156;DHT22;1588;50.892;7.082;2023-11-19T14:35:02;13.80;99.90
3156;DHT22;1588;50.892;7.082;2023-11-19T14:40:10;13.80;99.90
3156;DHT22;1588;50.892;7.082;2023-11-19T14:45:13;13.80;99.90
3156;DHT22;1588;50.892;7.082;2023-11-19T14:50:15;13.60;99.90
3156;DHT22;1588;50.892;7.082;2023-11-19T14:55:19;13.70;99.90
3156;DHT22;1588;50.892;7.082;2023-11-19T15:00:21;13.70;99.90
3156;DHT22;1588;50.892;7.082;2023-11-19T15:05:24;13.70;99.90
3156;DHT22;1588;50.892;7.082;2023-11-19T15:10:27;13.60;99.90
3156;DHT22;1588;50.892;7.082;2023-11-19T15:15:30;13.50;99.90
3156;DHT22;1588;50.892;7.082;2023-11-19T15:20:32;13.30;99.90
3156;DHT22;1588;50.892;7.082;2023-11-19T15:25:36;13.10;99.90
3156;DHT22;1588;50.892;7.082;2023-11-19T15:30:38;13.00;99.90
3156;DHT22;1588;50.892;7.082;2023-11-19T15:35:41;13.00;99.90
3156;DHT22;1588;50.892;7.082;2023-11-19T15:40:49;13.00;99.90
3156;DHT22;1588;50.892;7.082;2023-11-19T15:45:52;12.90;99.90
3156;DHT22;1588;50.892;7.082;2023-11-19T15:50:54;12.70;99.90
3156;DHT22;1588;50.892;7.082;2023-11-19T15:55:59;12.60;99.90
3156;DHT22;1588;50.892;7.082;2023-11-19T16:01:02;12.50;99.90
3156;DHT22;1588;50.892;7.082;2023-11-19T16:06:06;12.50;99.90
3156;DHT22;1588;50.892;7.082;2023-11-19T16:11:12;12.40;99.90
3156;DHT22;1588;50.892;7.082;2023-11-19T16:16:15;12.50;99.90
3156;DHT22;1588;50.892;7.082;2023-11-19T16:21:17;12.40;99.90
3156;DHT22;1588;50.892;7.082;2023-11-19T16:26:21;12.30;99.90
3156;DHT22;1588;50.892;7.082;2023-11-19T16:31:23;12.30;99.90
3156;DHT22;1588;50.892;7.082;2023-11-19T16:36:26;12.40;99.90
3156;DHT22;1588;50.892;7.082;2023-11-19T16:41:30;12.50;99.90
3156;DHT22;1588;50.892;7.082;2023-11-19T16:46:32;12.40;99.90
3156;DHT22;1588;50.892;7.082;2023-11-19T16:51:35;12.40;99.90
3156;DHT22;1588;50.892;7.082;2023-11-19T16:56:41;12.40;99.90
3156;DHT22;1588;50.892;7.082;2023-11-19T17:01:44;12.40;99.90
3156;DHT22;1588;50.892;7.082;2023-11-19T17:06:47;12.40;99.90
3156;DHT22;1588;50.892;7.082;2023-11-19T17:11:51;12.50;99.90
3156;DHT22;1588;50.892;7.082;2023-11-19T17:16:53;12.60;99.90
3156;DHT22;1588;50.892;7.082;2023-11-19T17:21:55;12.50;99.90
3156;DHT22;1588;50.892;7.082;2023-11-19T17:26:59;12.40;99.90
3156;DHT22;1588;50.892;7.082;2023-11-19T17:32:02;12.50;99.90
3156;DHT22;1588;50.892;7.082;2023-11-19T17:37:04;12.50;99.90
3156;DHT22;1588;50.892;7.082;2023-11-19T17:42:09;12.40;99.90
3156;DHT22;1588;50.892;7.082;2023-11-19T17:47:12;12.30;99.90
3156;DHT22;1588;50.892;7.082;2023-11-19T17:52:15;12.40;99.90
3156;DHT22;1588;50.892;7.082;2023-11-19T17:57:18;12.50;99.90
3156;DHT22;1588;50.892;7.082;2023-11-19T18:02:26;12.40;99.90
3156;DHT22;1588;50.892;7.082;2023-11-19T18:07:28;12.40;99.90
3156;DHT22;1588;50.892;7.082;2023-11-19T18:12:32;12.30;99.90
3156;DHT22;1588;50.892;7.082;2023-11-19T18:17:35;12.20;99.90
3156;DHT22;1588;50.892;7.082;2023-11-19T18:22:38;12.20;99.90
3156;DHT22;1588;50.892;7.082;2023-11-19T18:27:42;12.10;99.90
3156;DHT22;1588;50.892;7.082;2023-11-19T18:32:44;12.10;99.90
3156;DHT22;1588;50.892;7.082;2023-11-19T18:37:46;12.20;99.90
3156;DHT22;1588;50.892;7.082;2023-11-19T18:48:47;12.40;99.90
3156;DHT22;1588;50.892;7.082;2023-11-19T18:59:49;12.50;99.90
3156;DHT22;1588;50.892;7.082;2023-11-19T19:05:09;12.50;99.90
3156;DHT22;1588;50.892;7.082;2023-11-19T19:10:18;12.50;99.90
3156;DHT22;1588;50.892;7.082;2023-11-19T19:15:20;12.40;99.90
3156;DHT22;1588;50.892;7.082;2023-11-19T19:20:28;12.40;99.90
3156;DHT22;1588;50.892;7.082;2023-11-19T19:25:33;12.50;99.90
3156;DHT22;1588;50.892;7.082;2023-11-19T19:30:36;12.40;99.90
3156;DHT22;1588;50.892;7.082;2023-11-19T19:35:40;12.30;99.90
3156;DHT22;1588;50.892;7.082;2023-11-19T19:40:43;12.30;99.90
3156;DHT22;1588;50.892;7.082;2023-11-19T19:45:46;12.30;99.90
3156;DHT22;1588;50.892;7.082;2023-11-19T19:50:49;12.20;99.90
3156;DHT22;1588;50.892;7.082;2023-11-19T19:55:52;12.30;99.90
3156;DHT22;1588;50.892;7.082;2023-11-19T20:00:55;12.30;99.90
3156;DHT22;1588;50.892;7.082;2023-11-19T20:05:59;12.40;99.90
3156;DHT22;1588;50.892;7.082;2023-11-19T20:11:02;12.50;99.90
3156;DHT22;1588;50.892;7.082;2023-11-19T20:16:05;12.50;99.90
3156;DHT22;1588;50.892;7.082;2023-11-19T20:21:09;12.40;99.90
3156;DHT22;1588;50.892;7.082;2023-11-19T20:26:11;12.40;99.90
3156;DHT22;1588;50.892;7.082;2023-11-19T20:31:19;12.40;99.90
3156;DHT22;1588;50.892;7.082;2023-11-19T20:36:23;12.50;99.90
3156;DHT22;1588;50.892;7.082;2023-11-19T20:41:26;12.40;99.90
3156;DHT22;1588;50.892;7.082;2023-11-19T20:46:28;12.40;99.90
3156;DHT22;1588;50.892;7.082;2023-11-19T20:51:32;12.50;99.90
3156;DHT22;1588;50.892;7.082;2023-11-19T20:56:35;12.50;99.90
3156;DHT22;1588;50.892;7.082;2023-11-19T21:01:37;12.60;99.90
3156;DHT22;1588;50.892;7.082;2023-11-19T21:06:41;12.70;99.90
3156;DHT22;1588;50.892;7.082;2023-11-19T21:11:45;12.60;99.90
3156;DHT22;1588;50.892;7.082;2023-11-19T21:16:47;12.50;99.90
3156;DHT22;1588;50.892;7.082;2023-11-19T21:21:52;12.60;99.90
3156;DHT22;1588;50.892;7.082;2023-11-19T21:26:54;12.50;99.90
3156;DHT22;1588;50.892;7.082;2023-11-19T21:31:56;12.50;99.90
3156;DHT22;1588;50.892;7.082;2023-11-19T21:37:00;12.60;99.90
3156;DHT22;1588;50.892;7.082;2023-11-19T21:42:06;12.60;99.90
3156;DHT22;1588;50.892;7.082;2023-11-19T21:47:09;12.60;99.90
3156;DHT22;1588;50.892;7.082;2023-11-19T21:52:13;12.60;99.90
3156;DHT22;1588;50.892;7.082;2023-11-19T21:57:17;12.70;99.90
3156;DHT22;1588;50.892;7.082;2023-11-19T22:02:19;12.60;99.90
3156;DHT22;1588;50.892;7.082;2023-11-19T22:07:24;12.70;99.90
3156;DHT22;1588;50.892;7.082;2023-11-19T22:12:27;12.60;99.90
3156;DHT22;1588;50.892;7.082;2023-11-19T22:17:29;12.60;99.90
3156;DHT22;1588;50.892;7.082;2023-11-19T22:22:33;12.50;99.90
3156;DHT22;1588;50.892;7.082;2023-11-19T22:27:39;12.50;99.90
3156;DHT22;1588;50.892;7.082;2023-11-19T22:32:42;12.50;99.90
3156;DHT22;1588;50.892;7.082;2023-11-19T22:37:46;12.40;99.90
3156;DHT22;1588;50.892;7.082;2023-11-19T22:42:48;12.40;99.90
3156;DHT22;1588;50.892;7.082;2023-11-19T22:47:51;12.40;99.90
3156;DHT22;1588;50.892;7.082;2023-11-19T22:52:58;12.30;99.90
3156;DHT22;1588;50.892;7.082;2023-11-19T22:58:01;12.40;99.90
3156;DHT22;1588;50.892;7.082;2023-11-19T23:03:04;12.40;99.90
3156;DHT22;1588;50.892;7.082;2023-11-19T23:08:09;12.40;99.90
3156;DHT22;1588;50.892;7.082;2023-11-19T23:13:12;12.30;99.90
3156;DHT22;1588;50.892;7.082;2023-11-19T23:18:15;12.30;99.90
3156;DHT22;1588;50.892;7.082;2023-11-19T23:23:19;12.30;99.90
3156;DHT22;1588;50.892;7.082;2023-11-19T23:28:23;12.20;99.90
3156;DHT22;1588;50.892;7.082;2023-11-19T23:33:26;12.30;99.90
3156;DHT22;1588;50.892;7.082;2023-11-19T23:38:30;12.20;99.90
3156;DHT22;1588;50.892;7.082;2023-11-19T23:43:33;12.20;99.90
3156;DHT22;1588;50.892;7.082;2023-11-19T23:48:36;12.20;99.90
3156;DHT22;1588;50.892;7.082;2023-11-19T23:53:40;12.20;99.90
3156;DHT22;1588;50.892;7.082;2023-11-19T23:58:44;12.30;99.90
